Time;durP1;ratioP1;P1;durP2;ratioP2;P2;SDS_P1;SDS_P2;PMS_P1;PMS_P2;Temp;Humidity;BMP_temperature;BMP_pressure;BME280_temperature;BME280_humidity;BME280_pressure;Samples;Min_cycle;Max_cycle;Signal;HPM_P1;HPM_P2
2023/07/22 00:01:19;;;;;;;1.98;1.42;;;23.80;96.90;;;;;;4956657;29;20035;-81
2023/07/22 00:03:45;;;;;;;4.35;1.95;;;23.70;96.90;;;;;;4957284;29;20038;-82
2023/07/22 00:06:11;;;;;;;2.00;1.63;;;23.70;96.90;;;;;;4956695;28;20032;-82
2023/07/22 00:08:38;;;;;;;3.20;2.43;;;23.70;96.90;;;;;;4957697;29;20024;-82
2023/07/22 00:11:05;;;;;;;3.05;2.42;;;23.70;96.70;;;;;;4956531;29;20042;-81
2023/07/22 00:13:32;;;;;;;;;;;23.70;96.70;;;;;;4958799;28;20031;-82
2023/07/22 00:16:01;;;;;;;3.10;2.20;;;23.70;96.30;;;;;;4956723;29;20392;-82
2023/07/22 00:18:28;;;;;;;2.70;1.85;;;23.70;96.50;;;;;;4956324;29;20517;-81
2023/07/22 00:20:54;;;;;;;3.05;1.90;;;23.60;96.90;;;;;;4956807;29;20038;-82
2023/07/22 00:23:20;;;;;;;3.17;2.20;;;23.60;96.60;;;;;;4956515;29;20035;-81
2023/07/22 00:25:47;;;;;;;2.50;2.17;;;23.60;96.80;;;;;;4956426;29;20032;-81
2023/07/22 00:28:13;;;;;;;4.18;2.22;;;23.60;96.80;;;;;;4955768;28;20027;-82
2023/07/22 00:30:39;;;;;;;2.90;2.13;;;23.60;96.60;;;;;;4956822;29;20031;-81
2023/07/22 00:33:05;;;;;;;3.43;2.47;;;23.70;96.70;;;;;;4956514;28;20035;-82
2023/07/22 00:35:32;;;;;;;2.72;2.00;;;23.60;96.70;;;;;;4956084;28;20058;-82
2023/07/22 00:37:58;;;;;;;;;;;23.70;96.70;;;;;;4956692;29;20548;-81
2023/07/22 00:40:24;;;;;;;4.22;2.22;;;23.60;97.00;;;;;;4956611;28;19926;-81
2023/07/22 00:42:50;;;;;;;3.08;2.78;;;23.60;97.00;;;;;;4956069;28;20023;-81
2023/07/22 00:45:16;;;;;;;4.03;2.87;;;23.60;97.20;;;;;;4972454;28;20494;-82
2023/07/22 00:47:43;;;;;;;3.67;2.10;;;23.50;97.20;;;;;;4956546;29;20027;-82
2023/07/22 00:50:09;;;;;;;;;;;23.50;97.30;;;;;;4972055;28;20035;-81
2023/07/22 00:52:35;;;;;;;2.97;2.20;;;23.50;96.90;;;;;;4956165;28;19910;-81
2023/07/22 00:55:02;;;;;;;2.73;2.17;;;23.50;97.30;;;;;;4956483;29;20042;-81
2023/07/22 00:57:28;;;;;;;5.10;2.20;;;23.50;97.60;;;;;;4956415;29;20118;-82
2023/07/22 00:59:55;;;;;;;3.95;2.85;;;23.50;97.60;;;;;;4956145;29;20408;-81
2023/07/22 01:02:21;;;;;;;16.60;2.95;;;23.50;97.70;;;;;;4955544;29;20035;-81
2023/07/22 01:04:49;;;;;;;6.53;2.80;;;23.50;97.60;;;;;;4955744;28;20023;-82
2023/07/22 01:07:15;;;;;;;2.78;2.28;;;23.50;97.70;;;;;;4955484;28;20046;-81
2023/07/22 01:09:42;;;;;;;4.10;2.65;;;23.50;97.70;;;;;;4957581;28;20442;-81
2023/07/22 01:12:10;;;;;;;7.25;3.20;;;23.50;97.90;;;;;;4955446;29;20035;-81
2023/07/22 01:14:41;;;;;;;3.00;2.70;;;23.50;98.00;;;;;;4955611;29;20023;-81
2023/07/22 01:17:08;;;;;;;4.00;2.63;;;23.50;97.80;;;;;;4956101;29;20023;-81
2023/07/22 01:19:34;;;;;;;5.15;3.03;;;23.50;98.10;;;;;;4957001;28;20118;-81
2023/07/22 01:22:07;;;;;;;4.07;2.80;;;23.50;98.20;;;;;;4955035;28;20023;-82
2023/07/22 01:24:34;;;;;;;6.63;3.28;;;23.50;98.30;;;;;;4955938;28;20392;-81
2023/07/22 01:27:00;;;;;;;3.38;2.72;;;23.40;98.40;;;;;;4955430;28;20027;-81
2023/07/22 01:29:26;;;;;;;4.25;2.63;;;23.50;98.20;;;;;;4955465;28;20051;-82
2023/07/22 01:31:53;;;;;;;3.38;2.60;;;23.50;98.10;;;;;;4955732;28;20038;-82
2023/07/22 01:34:20;;;;;;;4.45;2.63;;;23.50;98.30;;;;;;4955195;29;20042;-81
2023/07/22 01:36:50;;;;;;;3.90;3.20;;;23.40;98.30;;;;;;4954900;28;20031;-81
2023/07/22 01:39:21;;;;;;;3.13;2.65;;;23.40;98.40;;;;;;4955318;29;20051;-81
2023/07/22 01:41:47;;;;;;;5.03;2.67;;;23.40;98.40;;;;;;4954009;29;20086;-81
2023/07/22 01:44:14;;;;;;;3.80;2.87;;;23.40;98.80;;;;;;4938046;29;20036;-81
2023/07/22 01:46:40;;;;;;;3.35;3.05;;;23.30;98.90;;;;;;4938548;29;20263;-82
2023/07/22 01:49:12;;;;;;;5.75;2.90;;;23.30;98.90;;;;;;4955886;28;20090;-81
2023/07/22 01:51:40;;;;;;;9.23;4.00;;;23.30;98.80;;;;;;4953870;28;20042;-82
2023/07/22 01:54:06;;;;;;;3.88;2.65;;;23.30;98.80;;;;;;4970325;28;20461;-81
2023/07/22 01:56:32;;;;;;;4.90;3.53;;;23.30;98.70;;;;;;4953673;28;20035;-81
2023/07/22 01:58:58;;;;;;;5.45;3.47;;;23.30;98.80;;;;;;4949225;29;20410;-81
2023/07/22 02:01:24;;;;;;;8.20;3.30;;;23.30;98.80;;;;;;4934958;29;20047;-81
2023/07/22 02:03:50;;;;;;;4.83;4.23;;;23.30;98.90;;;;;;4935014;29;20106;-81
2023/07/22 02:06:16;;;;;;;4.10;3.53;;;23.30;99.00;;;;;;4935212;29;20062;-81
2023/07/22 02:08:41;;;;;;;4.33;3.93;;;23.30;99.00;;;;;;4935192;29;20027;-81
2023/07/22 02:11:10;;;;;;;6.63;4.07;;;23.30;99.10;;;;;;4934892;29;20027;-82
2023/07/22 02:13:36;;;;;;;4.88;4.10;;;23.30;99.00;;;;;;4934982;29;20035;-81
2023/07/22 02:16:03;;;;;;;4.47;3.90;;;23.30;99.10;;;;;;4948597;29;20383;-81
2023/07/22 02:18:29;;;;;;;7.93;4.55;;;23.30;99.10;;;;;;4937304;29;20399;-81
2023/07/22 02:20:56;;;;;;;5.93;4.22;;;23.30;99.10;;;;;;4953355;29;20035;-81
2023/07/22 02:23:22;;;;;;;;;;;23.30;99.10;;;;;;4953552;29;20513;-81
2023/07/22 02:25:53;;;;;;;7.18;4.38;;;23.20;99.30;;;;;;4953544;29;20066;-81
2023/07/22 02:28:21;;;;;;;6.38;4.38;;;23.20;99.10;;;;;;4954839;28;20027;-81
2023/07/22 02:30:48;;;;;;;32.65;5.10;;;23.20;99.30;;;;;;4953195;29;20492;-82
2023/07/22 02:33:15;;;;;;;4.28;3.88;;;23.20;99.30;;;;;;4952979;29;20035;-81
2023/07/22 02:35:41;;;;;;;4.40;3.50;;;23.20;99.40;;;;;;4953043;28;20490;-81
2023/07/22 02:38:07;;;;;;;3.75;3.42;;;23.20;99.20;;;;;;4954877;28;20379;-82
2023/07/22 02:40:37;;;;;;;5.00;3.47;;;23.20;99.30;;;;;;4952963;29;20078;-82
2023/07/22 02:43:05;;;;;;;7.53;4.60;;;23.20;99.20;;;;;;4953480;28;20425;-81
2023/07/22 02:45:31;;;;;;;6.00;4.22;;;23.20;99.50;;;;;;4952923;28;20027;-81
2023/07/22 02:47:57;;;;;;;5.40;4.10;;;23.20;99.70;;;;;;4952526;29;20029;-81
2023/07/22 02:50:22;;;;;;;10.33;5.63;;;23.10;99.70;;;;;;4953024;29;20027;-81
2023/07/22 02:52:48;;;;;;;5.40;4.07;;;23.10;99.80;;;;;;4952418;29;20024;-81
2023/07/22 02:55:18;;;;;;;5.47;4.97;;;23.10;99.90;;;;;;4952752;28;20509;-82
2023/07/22 02:57:48;;;;;;;5.10;3.67;;;23.00;99.90;;;;;;4952390;28;20066;-81
2023/07/22 03:00:25;;;;;;;6.88;4.25;;;23.00;99.90;;;;;;4951521;28;20082;-82
2023/07/22 03:02:52;;;;;;;8.45;4.47;;;22.90;99.90;;;;;;4949347;29;20083;-81
2023/07/22 03:05:19;;;;;;;7.05;4.47;;;22.90;99.90;;;;;;4925866;29;20032;-82
2023/07/22 03:07:45;;;;;;;;;;;22.80;99.90;;;;;;4953538;29;20023;-81
2023/07/22 03:10:11;;;;;;;4.53;3.90;;;22.80;99.90;;;;;;4955134;29;19911;-82
2023/07/22 03:12:37;;;;;;;6.38;4.07;;;22.80;99.90;;;;;;4954380;29;20094;-82
2023/07/22 03:15:05;;;;;;;6.50;4.43;;;22.80;99.90;;;;;;4954460;28;20034;-81
2023/07/22 03:17:31;;;;;;;5.25;3.92;;;22.80;99.90;;;;;;4952970;28;20130;-82
2023/07/22 03:19:56;;;;;;;4.90;4.40;;;22.80;99.90;;;;;;4950240;29;20131;-82
2023/07/22 03:22:22;;;;;;;8.07;4.30;;;22.80;99.90;;;;;;4938596;29;20375;-81
2023/07/22 03:24:49;;;;;;;14.10;4.83;;;22.80;99.90;;;;;;4953484;29;20074;-82
2023/07/22 03:27:17;;;;;;;6.32;3.40;;;22.80;99.90;;;;;;4954065;29;20405;-82
2023/07/22 03:29:43;;;;;;;7.90;4.13;;;22.80;99.90;;;;;;4954435;28;20047;-81
2023/07/22 03:32:09;;;;;;;8.93;4.93;;;22.80;99.90;;;;;;4953185;29;20033;-81
2023/07/22 03:34:35;;;;;;;5.13;4.32;;;22.80;99.90;;;;;;4952875;28;20358;-81
2023/07/22 03:37:01;;;;;;;7.72;4.60;;;22.70;99.90;;;;;;4954902;28;20050;-82
2023/07/22 03:39:27;;;;;;;9.20;4.77;;;22.80;99.90;;;;;;4953263;29;20034;-81
2023/07/22 03:41:52;;;;;;;6.67;4.90;;;22.80;99.90;;;;;;4953216;28;20522;-82
2023/07/22 03:44:19;;;;;;;8.70;5.20;;;22.80;99.90;;;;;;4948631;29;20071;-85
2023/07/22 03:46:44;;;;;;;9.57;5.50;;;22.80;99.90;;;;;;4951756;28;20031;-80
2023/07/22 03:49:10;;;;;;;9.77;5.17;;;22.80;99.90;;;;;;4969865;28;20042;-80
2023/07/22 03:51:36;;;;;;;6.33;5.07;;;22.90;99.90;;;;;;4954286;29;20094;-79
2023/07/22 03:54:02;;;;;;;5.70;5.10;;;22.90;99.90;;;;;;4953461;28;20114;-80
2023/07/22 03:56:28;;;;;;;8.90;5.93;;;23.00;99.90;;;;;;4958724;28;20053;-80
2023/07/22 03:58:54;;;;;;;8.73;5.53;;;23.00;99.90;;;;;;4951340;28;20114;-80
2023/07/22 04:01:20;;;;;;;8.60;5.82;;;23.10;99.90;;;;;;4944635;28;20163;-81
2023/07/22 04:03:45;;;;;;;5.97;5.20;;;23.00;99.90;;;;;;4940119;29;20522;-81
2023/07/22 04:06:11;;;;;;;6.57;5.33;;;23.00;99.90;;;;;;4933128;29;20487;-80
2023/07/22 04:08:37;;;;;;;9.97;6.83;;;23.10;99.90;;;;;;4948720;28;20027;-80
2023/07/22 04:11:03;;;;;;;7.50;6.13;;;23.20;99.90;;;;;;4952203;29;20074;-80
2023/07/22 04:13:29;;;;;;;10.00;7.17;;;23.20;99.90;;;;;;4936405;29;20517;-80
2023/07/22 04:15:55;;;;;;;8.93;6.07;;;23.30;99.90;;;;;;4943599;29;20410;-81
2023/07/22 04:18:23;;;;;;;7.55;4.95;;;23.30;99.90;;;;;;4938830;29;20036;-80
2023/07/22 04:20:57;;;;;;;18.40;6.25;;;23.30;99.90;;;;;;4952147;29;20066;-80
2023/07/22 04:23:23;;;;;;;8.18;5.32;;;23.20;99.90;;;;;;4937265;29;20047;-80
2023/07/22 04:25:49;;;;;;;12.10;6.40;;;23.30;99.90;;;;;;4952029;29;20024;-80
2023/07/22 04:28:15;;;;;;;9.30;5.78;;;23.20;99.90;;;;;;4937160;29;20044;-80
2023/07/22 04:30:41;;;;;;;9.53;6.47;;;23.20;99.90;;;;;;4935984;29;20027;-80
2023/07/22 04:33:10;;;;;;;8.60;6.53;;;23.20;99.90;;;;;;4951796;29;20059;-80
2023/07/22 04:35:41;;;;;;;10.15;5.53;;;23.20;99.90;;;;;;4937147;29;20110;-80
2023/07/22 04:38:07;;;;;;;7.85;6.45;;;23.30;99.90;;;;;;4936923;29;20035;-80
2023/07/22 04:40:33;;;;;;;9.13;6.03;;;23.40;99.90;;;;;;4937069;29;20043;-81
2023/07/22 04:42:58;;;;;;;10.43;5.93;;;23.40;99.90;;;;;;4951762;29;20040;-80
2023/07/22 04:45:24;;;;;;;9.70;7.30;;;23.50;99.90;;;;;;4951913;29;20486;-80
2023/07/22 04:47:51;;;;;;;10.37;6.07;;;23.50;99.90;;;;;;4936897;29;20028;-80
2023/07/22 04:50:17;;;;;;;7.60;6.75;;;23.50;99.90;;;;;;4935937;29;20074;-81
2023/07/22 04:52:46;;;;;;;10.15;7.78;;;23.50;99.90;;;;;;4936896;29;20171;-80
2023/07/22 04:55:13;;;;;;;8.73;7.18;;;23.50;99.90;;;;;;4936752;29;20031;-80
2023/07/22 04:57:44;;;;;;;8.65;7.65;;;23.50;99.90;;;;;;4937218;29;20076;-81
2023/07/22 05:00:16;;;;;;;11.02;9.20;;;23.60;99.90;;;;;;4936841;29;20074;-80
2023/07/22 05:02:49;;;;;;;13.48;9.20;;;23.60;99.90;;;;;;4935478;29;20561;-81
2023/07/22 05:05:15;;;;;;;11.77;9.27;;;23.60;99.90;;;;;;4935619;29;20038;-81
2023/07/22 06:12:14;;;;;;;8.35;5.45;;;24.10;99.90;;;;;;5831976;23;20054;-80
2023/07/22 06:14:40;;;;;;;7.00;5.72;;;24.10;99.90;;;;;;4982822;28;20074;-79
2023/07/22 06:17:05;;;;;;;9.57;5.97;;;24.30;99.90;;;;;;4983122;28;20026;-79
2023/07/22 06:19:31;;;;;;;8.43;5.80;;;24.40;99.90;;;;;;4998481;28;20481;-80
2023/07/22 06:21:57;;;;;;;6.77;4.83;;;24.60;99.90;;;;;;4984154;28;20081;-79
2023/07/22 06:24:23;;;;;;;7.57;4.80;;;24.70;99.20;;;;;;4983200;28;20484;-79
2023/07/22 07:35:24;;;;;;;5.45;3.75;;;27.00;89.30;;;;;;5824765;23;20420;-85
2023/07/22 07:37:50;;;;;;;4.77;4.07;;;27.20;88.70;;;;;;4987816;28;20027;-86
2023/07/22 07:40:16;;;;;;;4.80;4.17;;;27.30;89.20;;;;;;4955852;28;20139;-84
2023/07/22 07:42:41;;;;;;;7.27;3.97;;;27.30;88.60;;;;;;4971498;28;20058;-84
2023/07/22 07:45:08;;;;;;;6.17;4.07;;;27.40;88.70;;;;;;4974744;28;20062;-84
2023/07/22 07:47:34;;;;;;;5.50;4.95;;;27.40;88.60;;;;;;5018229;23;20034;-79
2023/07/22 07:49:59;;;;;;;5.07;4.13;;;27.30;87.70;;;;;;4979495;28;20038;-80
2023/07/22 07:52:25;;;;;;;6.07;3.80;;;27.30;88.80;;;;;;4981678;28;20086;-80
2023/07/22 07:54:51;;;;;;;5.67;3.77;;;27.40;89.00;;;;;;4981655;28;20037;-79
2023/07/22 07:57:17;;;;;;;4.93;4.20;;;27.50;87.60;;;;;;4983800;28;20477;-80
2023/07/22 07:59:43;;;;;;;6.30;3.80;;;27.50;86.50;;;;;;4982264;28;20027;-81
2023/07/22 08:02:10;;;;;;;4.90;3.60;;;27.50;87.50;;;;;;4979594;28;20110;-80
2023/07/22 08:04:36;;;;;;;5.97;4.10;;;27.50;87.10;;;;;;4983242;28;20027;-80
2023/07/22 08:07:04;;;;;;;4.97;3.53;;;27.60;87.50;;;;;;4984108;28;20405;-80
2023/07/22 08:09:30;;;;;;;4.85;4.20;;;27.60;87.40;;;;;;4981717;28;20030;-79
2023/07/22 08:11:55;;;;;;;5.63;4.57;;;27.60;87.20;;;;;;4979295;28;20038;-80
2023/07/22 08:14:22;;;;;;;5.53;4.10;;;27.60;87.80;;;;;;4978936;28;20329;-80
2023/07/22 08:16:48;;;;;;;10.68;4.25;;;27.50;86.60;;;;;;4983283;28;20033;-79
2023/07/22 08:19:14;;;;;;;9.83;4.30;;;27.50;88.10;;;;;;4979938;28;20113;-79
2023/07/22 08:21:39;;;;;;;8.73;4.73;;;27.40;87.60;;;;;;4964419;28;20031;-79
2023/07/22 08:24:05;;;;;;;4.40;4.00;;;27.40;86.90;;;;;;4982045;28;20027;-79
2023/07/22 08:26:31;;;;;;;6.10;4.43;;;27.30;88.00;;;;;;4981155;28;20078;-80
2023/07/22 08:28:57;;;;;;;5.53;4.40;;;27.30;89.00;;;;;;4983680;28;20543;-80
2023/07/22 08:31:23;;;;;;;6.87;3.53;;;27.30;89.60;;;;;;4983087;28;20038;-79
2023/07/22 08:33:49;;;;;;;7.03;3.60;;;27.40;90.10;;;;;;4984620;28;20406;-80
2023/07/22 08:36:15;;;;;;;7.00;4.23;;;27.40;90.20;;;;;;4984189;28;20098;-80
2023/07/22 08:38:41;;;;;;;7.32;4.82;;;27.40;90.20;;;;;;4983421;28;20037;-80
2023/07/22 08:41:07;;;;;;;6.83;3.70;;;27.50;90.10;;;;;;4983892;28;20118;-81
2023/07/22 08:43:34;;;;;;;7.68;4.20;;;27.40;89.80;;;;;;4983132;28;20035;-80
2023/07/22 08:46:06;;;;;;;10.90;4.20;;;27.30;89.70;;;;;;4984205;28;20568;-81
2023/07/22 08:48:34;;;;;;;6.93;4.35;;;27.30;89.90;;;;;;4982477;28;20051;-80
2023/07/22 08:51:23;;;;;;;7.18;4.35;;;27.40;90.80;;;;;;4984642;28;20026;-79
2023/07/22 08:53:50;;;;;;;6.80;4.28;;;27.40;90.60;;;;;;4984881;28;20465;-81
2023/07/22 08:56:16;;;;;;;6.57;5.30;;;27.40;90.60;;;;;;4984952;28;20034;-81
2023/07/22 08:58:45;;;;;;;8.23;4.75;;;27.50;90.50;;;;;;4984447;28;20031;-80
2023/07/22 09:01:11;;;;;;;4.78;4.28;;;27.60;90.40;;;;;;4982454;28;20042;-81
2023/07/22 09:03:40;;;;;;;9.40;4.35;;;27.80;90.70;;;;;;4984458;28;20030;-80
2023/07/22 09:06:06;;;;;;;8.73;4.20;;;28.00;90.60;;;;;;4983592;28;20033;-80
2023/07/22 09:08:33;;;;;;;6.97;4.80;;;28.10;89.90;;;;;;4984805;28;20031;-80
2023/07/22 09:10:59;;;;;;;9.38;4.32;;;28.30;89.00;;;;;;4984566;28;20026;-81
2023/07/22 09:13:26;;;;;;;6.40;4.27;;;28.50;88.90;;;;;;4985522;28;20038;-80
2023/07/22 09:15:53;;;;;;;7.32;3.75;;;28.80;86.90;;;;;;4985936;28;20084;-80
2023/07/22 09:18:18;;;;;;;6.15;4.18;;;28.90;85.20;;;;;;4985498;28;20098;-81
2023/07/22 09:20:44;;;;;;;4.30;3.53;;;28.90;84.60;;;;;;4985262;28;20046;-80
2023/07/22 09:23:11;;;;;;;6.13;2.80;;;28.90;84.50;;;;;;4984481;28;20117;-80
2023/07/22 09:25:39;;;;;;;4.75;3.08;;;29.00;84.10;;;;;;4984295;28;20298;-81
2023/07/22 09:28:05;;;;;;;4.07;2.83;;;29.10;82.90;;;;;;4967073;28;20026;-81
2023/07/22 09:30:35;;;;;;;7.47;2.77;;;29.30;80.80;;;;;;4983670;28;20101;-80
2023/07/22 09:33:02;;;;;;;5.75;2.60;;;29.30;78.50;;;;;;4985390;28;20043;-81
2023/07/22 09:35:43;;;;;;;8.80;3.15;;;29.30;78.80;;;;;;4981609;28;20062;-80
2023/07/22 09:38:09;;;;;;;4.75;2.53;;;29.40;79.30;;;;;;4981247;28;20045;-81
2023/07/22 09:40:35;;;;;;;6.73;2.57;;;29.40;80.50;;;;;;4965984;28;20508;-81
2023/07/22 09:43:02;;;;;;;3.20;2.13;;;29.40;78.20;;;;;;4983487;28;20286;-80
2023/07/22 09:45:30;;;;;;;6.40;2.33;;;29.40;78.30;;;;;;4982070;28;20437;-81
2023/07/22 09:47:56;;;;;;;6.72;2.53;;;29.40;77.80;;;;;;4981811;28;20031;-81
2023/07/22 09:50:24;;;;;;;7.43;2.60;;;29.50;78.20;;;;;;4983400;28;20031;-81
2023/07/22 09:53:01;;;;;;;6.45;2.60;;;29.40;77.40;;;;;;4983816;28;20066;-81
2023/07/22 09:55:28;;;;;;;5.60;2.72;;;29.50;77.50;;;;;;4984976;28;20043;-80
2023/07/22 09:57:57;;;;;;;4.18;2.65;;;29.50;77.10;;;;;;4983096;28;20031;-81
2023/07/22 10:00:25;;;;;;;4.32;2.28;;;29.60;76.40;;;;;;4983979;28;20077;-81
2023/07/22 10:02:52;;;;;;;4.65;2.88;;;29.80;75.70;;;;;;4984158;28;20066;-81
2023/07/22 10:05:19;;;;;;;3.63;2.05;;;29.80;73.90;;;;;;4984716;28;20407;-81
2023/07/22 10:07:51;;;;;;;3.58;2.30;;;29.80;74.50;;;;;;4983765;28;20031;-81
2023/07/22 10:10:20;;;;;;;7.38;2.63;;;29.90;75.40;;;;;;4983062;28;20031;-80
2023/07/22 10:12:46;;;;;;;3.97;2.70;;;30.00;75.10;;;;;;4984613;28;20051;-81
2023/07/22 10:15:14;;;;;;;4.78;2.72;;;30.10;74.30;;;;;;4984754;28;20034;-81
2023/07/22 10:17:44;;;;;;;4.82;1.92;;;30.10;72.90;;;;;;4983472;28;20584;-81
2023/07/22 10:20:14;;;;;;;2.42;1.90;;;30.10;71.60;;;;;;4985200;28;20109;-81
2023/07/22 10:22:44;;;;;;;5.00;2.35;;;30.10;71.80;;;;;;4982107;28;20461;-81
2023/07/22 10:25:15;;;;;;;26.92;3.03;;;30.10;71.80;;;;;;4982882;28;20027;-82
2023/07/22 10:27:41;;;;;;;2.97;2.33;;;29.90;73.00;;;;;;4983763;28;20397;-81
2023/07/22 10:30:15;;;;;;;2.42;1.90;;;29.80;73.30;;;;;;4982779;28;20030;-80
2023/07/22 10:32:45;;;;;;;4.55;2.33;;;29.70;73.50;;;;;;4985054;28;20066;-81
2023/07/22 10:35:17;;;;;;;4.68;2.30;;;29.70;74.20;;;;;;4983829;28;20501;-81
2023/07/22 10:37:45;;;;;;;2.92;2.22;;;29.50;73.90;;;;;;4984891;28;20050;-80
2023/07/22 10:40:27;;;;;;;8.52;2.45;;;29.10;74.50;;;;;;4984967;28;20027;-81
2023/07/22 10:43:02;;;;;;;34.88;6.00;;;28.80;74.60;;;;;;4981786;28;20042;-82
2023/07/22 10:45:31;;;;;;;42.28;14.38;;;27.40;99.90;;;;;;4959548;28;20082;-82
2023/07/22 10:48:02;;;;;;;22.85;7.75;;;24.20;99.90;;;;;;4970364;28;20036;-85
2023/07/22 10:54:37;;;;;;;11.70;7.07;;;21.90;99.90;;;;;;4975709;28;20043;-83
2023/07/22 10:57:17;;;;;;;18.65;10.48;;;21.70;99.90;;;;;;4984532;28;20027;-83
2023/07/22 10:59:52;;;;;;;16.92;8.10;;;21.60;99.90;;;;;;4982806;28;20038;-83
2023/07/22 11:02:29;;;;;;;17.67;10.80;;;21.90;99.90;;;;;;4983633;28;20050;-83
2023/07/22 11:04:59;;;;;;;26.10;14.35;;;22.30;99.90;;;;;;4984516;28;20050;-84
2023/07/22 11:07:42;;;;;;;23.67;12.73;;;22.50;99.90;;;;;;4985267;28;20413;-83
2023/07/22 11:10:18;;;;;;;30.27;16.73;;;22.80;99.90;;;;;;4978659;28;20035;-84
2023/07/22 11:12:45;;;;;;;30.25;16.08;;;23.30;99.90;;;;;;4983205;28;20041;-84
2023/07/22 11:15:11;;;;;;;;;;;23.30;99.90;;;;;;4983298;28;20039;-84
2023/07/22 11:17:37;;;;;;;23.77;15.82;;;23.60;99.90;;;;;;4970659;28;20440;-83
2023/07/22 11:20:04;;;;;;;17.58;11.80;;;23.70;99.90;;;;;;4987103;28;20054;-84
2023/07/22 11:22:30;;;;;;;15.70;10.10;;;23.90;99.90;;;;;;4981285;28;20505;-84
2023/07/22 11:24:57;;;;;;;12.33;8.83;;;23.60;99.90;;;;;;4987159;28;20031;-85
2023/07/22 11:27:23;;;;;;;13.57;8.60;;;23.80;99.90;;;;;;4984441;28;20035;-84
2023/07/22 11:29:49;;;;;;;14.27;8.97;;;23.80;99.90;;;;;;4987036;28;20042;-84
2023/07/22 11:32:22;;;;;;;12.00;9.30;;;23.60;99.90;;;;;;4966307;28;20113;-86
2023/07/22 11:34:50;;;;;;;11.48;9.05;;;24.00;99.90;;;;;;4984326;28;20054;-85
2023/07/22 11:37:18;;;;;;;11.10;9.30;;;23.90;99.90;;;;;;4986187;28;20031;-83
2023/07/22 11:39:44;;;;;;;12.35;9.23;;;24.40;99.90;;;;;;4970286;28;20028;-86
2023/07/22 11:42:11;;;;;;;12.52;8.63;;;24.40;99.90;;;;;;4979045;28;20032;-84
2023/07/22 11:44:37;;;;;;;12.23;8.68;;;24.60;99.90;;;;;;4949068;29;20042;-86
2023/07/22 11:47:11;;;;;;;11.48;8.43;;;24.70;99.90;;;;;;4962279;29;20031;-85
2023/07/22 11:49:40;;;;;;;9.93;8.07;;;24.70;99.90;;;;;;4952534;28;20039;-84
2023/07/22 11:52:11;;;;;;;13.35;9.10;;;24.70;99.90;;;;;;4981394;28;20034;-86
2023/07/22 11:54:42;;;;;;;9.65;7.57;;;24.90;99.90;;;;;;4975402;28;20038;-84
2023/07/22 11:57:18;;;;;;;8.82;7.93;;;24.90;99.90;;;;;;4990585;28;20065;-84
2023/07/22 11:59:49;;;;;;;12.07;8.32;;;25.10;99.90;;;;;;4987778;28;20062;-84
2023/07/22 12:02:20;;;;;;;10.20;9.00;;;25.10;99.90;;;;;;4990319;28;20055;-81
2023/07/22 12:04:53;;;;;;;10.90;7.60;;;25.20;99.90;;;;;;4976925;28;20034;-84
2023/07/22 12:07:30;;;;;;;7.55;6.25;;;25.50;99.90;;;;;;4991246;28;20015;-82
2023/07/22 12:09:59;;;;;;;6.85;6.15;;;25.70;99.90;;;;;;4975431;28;20031;-83
2023/07/22 12:12:50;;;;;;;7.72;5.95;;;25.80;99.90;;;;;;4983743;28;20031;-84
2023/07/22 12:15:21;;;;;;;8.65;5.95;;;25.90;99.90;;;;;;4994319;28;20031;-81
2023/07/22 12:17:47;;;;;;;5.82;5.03;;;26.10;99.90;;;;;;4995238;28;20500;-81
2023/07/22 12:20:14;;;;;;;7.25;5.32;;;26.30;99.90;;;;;;4997202;28;20110;-81
2023/07/22 12:22:40;;;;;;;8.35;6.40;;;26.10;99.90;;;;;;4988994;28;20042;-81
2023/07/22 12:25:06;;;;;;;;;;;26.30;99.90;;;;;;4984775;28;20067;-81
2023/07/22 12:27:32;;;;;;;5.85;4.95;;;26.20;99.90;;;;;;4992259;28;19910;-82
2023/07/22 12:29:58;;;;;;;5.77;4.47;;;26.40;99.90;;;;;;4994986;28;20026;-82
2023/07/22 12:32:24;;;;;;;6.50;4.67;;;26.60;99.90;;;;;;4995397;28;20025;-82
2023/07/22 12:34:49;;;;;;;8.03;5.30;;;26.50;99.90;;;;;;4996331;28;20048;-81
2023/07/22 12:37:15;;;;;;;6.63;5.30;;;26.50;99.90;;;;;;4997105;28;20026;-81
2023/07/22 12:39:41;;;;;;;6.73;4.67;;;26.50;99.90;;;;;;4996397;28;20081;-82
2023/07/22 12:42:08;;;;;;;7.00;4.83;;;26.60;99.90;;;;;;4994618;28;20274;-81
2023/07/22 12:44:34;;;;;;;5.97;4.80;;;26.90;99.90;;;;;;4997625;28;20027;-81
2023/07/22 12:47:00;;;;;;;7.07;4.45;;;27.10;99.90;;;;;;4990001;28;20050;-81
2023/07/22 12:49:26;;;;;;;6.07;3.77;;;27.20;99.90;;;;;;4985990;28;20027;-81
2023/07/22 12:51:52;;;;;;;7.40;4.00;;;27.30;99.90;;;;;;4985566;28;20031;-81
2023/07/22 12:54:18;;;;;;;6.00;4.35;;;27.40;99.90;;;;;;4966344;29;20054;-81
2023/07/22 12:56:43;;;;;;;7.30;4.80;;;27.40;99.90;;;;;;4974802;28;20035;-82
2023/07/22 12:59:09;;;;;;;5.27;3.83;;;27.50;99.90;;;;;;4984580;28;20019;-82
2023/07/22 13:01:38;;;;;;;9.13;5.00;;;27.50;99.90;;;;;;4984671;28;20301;-81
2023/07/22 13:04:04;;;;;;;4.90;4.20;;;27.40;99.90;;;;;;4985812;28;20031;-81
2023/07/22 13:06:31;;;;;;;5.38;4.07;;;27.50;99.90;;;;;;4985888;28;20023;-81
2023/07/22 13:08:56;;;;;;;6.18;4.22;;;27.80;99.90;;;;;;4983611;28;20019;-83
2023/07/22 13:11:22;;;;;;;6.90;4.37;;;27.90;99.90;;;;;;4978987;28;20058;-82
2023/07/22 13:13:48;;;;;;;6.00;4.70;;;28.10;99.90;;;;;;4982918;28;20059;-82
2023/07/22 13:16:14;;;;;;;4.50;4.00;;;28.50;99.90;;;;;;4967518;28;20038;-82
2023/07/22 13:18:40;;;;;;;4.50;3.97;;;29.00;99.90;;;;;;4984860;28;20290;-82
2023/07/22 13:21:05;;;;;;;6.30;3.87;;;29.50;99.90;;;;;;4985173;28;20114;-82
2023/07/22 13:23:31;;;;;;;6.63;4.10;;;30.30;99.90;;;;;;4984120;28;20035;-82
2023/07/22 13:25:57;;;;;;;4.73;3.57;;;30.80;99.90;;;;;;4983568;28;20310;-83
2023/07/22 13:28:23;;;;;;;4.30;3.72;;;31.50;99.90;;;;;;4986339;28;20035;-82
2023/07/22 13:30:48;;;;;;;6.65;3.75;;;31.70;99.90;;;;;;4987132;28;20051;-82
2023/07/22 13:33:14;;;;;;;6.18;4.00;;;32.50;99.90;;;;;;4980750;28;20023;-82
2023/07/22 13:35:40;;;;;;;6.63;4.13;;;33.30;99.90;;;;;;4980062;28;20070;-83
2023/07/22 13:38:06;;;;;;;6.75;4.65;;;33.70;99.90;;;;;;4978098;28;20043;-82
2023/07/22 13:40:32;;;;;;;4.40;4.00;;;33.80;99.90;;;;;;4965714;28;20051;-82
2023/07/22 13:42:58;;;;;;;4.50;3.90;;;34.00;99.90;;;;;;4967112;28;20023;-82
2023/07/22 13:45:23;;;;;;;5.15;3.90;;;34.00;99.90;;;;;;4983186;28;20054;-83
2023/07/22 13:57:50;;;;;;;5.78;3.90;;;35.90;99.90;;;;;;5973949;23;20041;-80
2023/07/22 14:00:16;;;;;;;;;;;36.50;99.90;;;;;;4972406;28;20039;-80
2023/07/22 14:02:42;;;;;;;5.88;4.05;;;37.00;99.90;;;;;;4972039;28;20375;-81
2023/07/22 14:05:08;;;;;;;4.10;3.67;;;37.30;99.90;;;;;;4972807;28;20077;-82
2023/07/22 14:07:35;;;;;;;9.07;4.40;;;37.30;99.90;;;;;;4967513;28;20023;-81
2023/07/22 14:10:03;;;;;;;5.55;3.92;;;37.20;99.90;;;;;;4974282;28;20093;-81
2023/07/22 14:12:29;;;;;;;4.28;3.88;;;37.50;99.90;;;;;;4972943;28;20063;-80
2023/07/22 14:14:55;;;;;;;;;;;37.00;99.90;;;;;;4973106;28;20066;-81
2023/07/22 14:17:21;;;;;;;5.20;4.10;;;36.80;99.90;;;;;;4972661;28;20333;-81
2023/07/22 14:19:47;;;;;;;;;;;37.10;99.90;;;;;;4971142;28;20497;-81
2023/07/22 14:22:12;;;;;;;4.93;4.15;;;37.60;99.90;;;;;;4971092;28;19917;-81
2023/07/22 14:24:38;;;;;;;;;;;37.80;99.90;;;;;;4972304;28;20062;-81
2023/07/22 14:27:04;;;;;;;5.07;3.85;;;38.20;99.90;;;;;;4972262;28;19910;-81
2023/07/22 14:29:30;;;;;;;;;;;38.80;93.40;;;;;;4972604;28;20031;-81
2023/07/22 14:31:57;;;;;;;5.65;4.30;;;38.90;91.20;;;;;;4972749;28;19917;-80
2023/07/22 14:34:23;;;;;;;5.95;4.18;;;39.40;90.80;;;;;;4971840;28;20516;-82
2023/07/22 14:36:50;;;;;;;5.90;4.18;;;39.60;85.40;;;;;;4956594;28;20031;-83
2023/07/22 14:39:16;;;;;;;4.70;4.18;;;39.90;83.10;;;;;;4971182;28;20041;-83
2023/07/22 14:41:43;;;;;;;4.32;3.88;;;39.50;82.40;;;;;;4967395;28;20311;-83
2023/07/22 14:47:56;;;;;;;5.30;4.03;;;39.60;65.80;;;;;;4967833;28;20022;-83
2023/07/22 14:50:22;;;;;;;5.38;3.60;;;39.50;81.40;;;;;;4963011;28;20028;-83
2023/07/22 14:52:48;;;;;;;4.82;3.88;;;39.80;82.80;;;;;;4952135;28;20039;-83
2023/07/22 14:55:14;;;;;;;4.85;4.10;;;39.70;81.30;;;;;;4964077;28;20081;-83
2023/07/22 14:57:40;;;;;;;5.13;4.13;;;39.50;79.00;;;;;;4966614;28;20133;-83
2023/07/22 15:00:06;;;;;;;4.95;3.97;;;39.30;78.50;;;;;;4971596;28;20228;-83
2023/07/22 15:02:33;;;;;;;5.22;4.68;;;39.30;79.50;;;;;;4971320;28;20466;-83
2023/07/22 15:04:59;;;;;;;4.63;3.95;;;39.20;79.30;;;;;;4972918;28;20030;-83
2023/07/22 15:07:24;;;;;;;5.82;4.43;;;39.10;78.90;;;;;;4971675;28;20363;-83
2023/07/22 15:09:53;;;;;;;8.00;4.00;;;38.60;78.30;;;;;;4954891;28;20039;-83
2023/07/22 15:12:19;;;;;;;6.88;5.03;;;38.10;77.80;;;;;;4972231;28;20106;-83
2023/07/22 15:14:45;;;;;;;5.53;4.35;;;37.40;77.60;;;;;;4972430;28;20106;-83
2023/07/22 15:17:11;;;;;;;;;;;36.80;78.60;;;;;;4955297;28;20039;-83
2023/07/22 15:19:36;;;;;;;4.03;3.58;;;36.20;74.10;;;;;;4970911;28;19920;-82